createdAt,value
2023-07-24T00:00:24.701Z,0.00
2023-07-24T00:01:25.175Z,0.00
2023-07-24T00:02:24.718Z,0.00
2023-07-24T00:03:24.692Z,0.00
2023-07-24T00:04:24.658Z,0.00
2023-07-24T00:05:24.649Z,0.00
2023-07-24T00:06:24.657Z,0.00
2023-07-24T00:07:24.641Z,0.00
2023-07-24T00:08:24.601Z,0.00
2023-07-24T00:09:24.616Z,0.00
2023-07-24T00:10:24.605Z,0.00
2023-07-24T00:11:24.602Z,0.00
2023-07-24T00:12:24.578Z,0.00
2023-07-24T00:13:24.553Z,0.00
2023-07-24T00:14:24.548Z,0.00
2023-07-24T00:15:24.556Z,0.00
2023-07-24T00:16:24.545Z,0.00
2023-07-24T00:17:24.595Z,0.00
2023-07-24T00:18:24.515Z,0.00
2023-07-24T00:19:24.493Z,0.00
2023-07-24T00:20:24.504Z,0.00
2023-07-24T00:21:24.492Z,0.00
2023-07-24T00:22:24.463Z,0.00
2023-07-24T00:23:24.458Z,0.00
2023-07-24T00:24:24.481Z,0.00
2023-07-24T00:25:24.445Z,0.00
2023-07-24T00:26:24.417Z,0.00
2023-07-24T00:27:24.413Z,0.00
2023-07-24T00:28:24.404Z,0.00
2023-07-24T00:29:24.400Z,0.00
2023-07-24T00:30:24.367Z,0.00
2023-07-24T00:31:24.484Z,0.00
2023-07-24T00:32:24.437Z,0.00
2023-07-24T00:33:24.335Z,0.00
2023-07-24T00:34:24.833Z,0.00
2023-07-24T00:35:24.333Z,0.00
2023-07-24T00:36:24.315Z,0.00
2023-07-24T00:37:24.328Z,0.00
2023-07-24T00:38:24.287Z,0.00
2023-07-24T00:39:24.291Z,0.00
2023-07-24T00:40:24.288Z,0.00
2023-07-24T00:41:24.278Z,0.00
2023-07-24T00:42:24.251Z,0.00
2023-07-24T00:43:24.235Z,0.00
2023-07-24T00:44:24.256Z,0.00
2023-07-24T00:45:24.235Z,0.00
2023-07-24T00:46:24.213Z,0.00
2023-07-24T00:47:24.267Z,0.00
2023-07-24T00:48:24.194Z,0.00
2023-07-24T00:49:24.165Z,0.00
2023-07-24T00:50:24.180Z,0.00
2023-07-24T00:51:24.177Z,0.00
2023-07-24T00:52:24.143Z,0.00
2023-07-24T00:53:24.144Z,0.00
2023-07-24T00:54:24.115Z,0.00
2023-07-24T00:55:24.096Z,0.00
2023-07-24T00:56:24.102Z,0.00
2023-07-24T00:57:24.116Z,0.00
2023-07-24T00:58:24.087Z,0.00
2023-07-24T00:59:24.070Z,0.00
2023-07-24T01:00:24.063Z,0.00
2023-07-24T01:01:24.049Z,0.00
2023-07-24T01:02:24.068Z,0.00
2023-07-24T01:03:24.043Z,0.00
2023-07-24T01:04:24.052Z,0.00
2023-07-24T01:05:24.001Z,0.00
2023-07-24T01:06:23.991Z,0.00
2023-07-24T01:07:23.998Z,0.00
2023-07-24T01:08:24.012Z,0.00
2023-07-24T01:09:23.995Z,0.00
2023-07-24T01:10:23.945Z,0.00
2023-07-24T01:11:23.956Z,0.00
2023-07-24T01:12:23.984Z,0.00
2023-07-24T01:13:23.929Z,0.00
2023-07-24T01:14:23.918Z,0.00
2023-07-24T01:15:23.891Z,0.00
2023-07-24T01:16:23.947Z,0.00
2023-07-24T01:17:23.895Z,0.00
2023-07-24T01:18:23.895Z,0.00
2023-07-24T01:19:23.850Z,0.00
2023-07-24T01:20:23.851Z,0.00
2023-07-24T01:21:23.834Z,0.00
2023-07-24T01:22:23.877Z,0.00
2023-07-24T01:23:23.811Z,0.00
2023-07-24T01:24:23.856Z,0.00
2023-07-24T01:25:23.800Z,0.00
2023-07-24T01:26:23.781Z,0.00
2023-07-24T01:27:23.757Z,0.00
2023-07-24T01:28:23.766Z,0.00
2023-07-24T01:29:23.745Z,0.00
2023-07-24T01:30:23.820Z,0.00
2023-07-24T01:31:23.762Z,0.00
2023-07-24T01:32:23.747Z,0.00
2023-07-24T01:33:23.708Z,0.00
2023-07-24T01:34:23.766Z,0.00
2023-07-24T01:35:23.692Z,0.00
2023-07-24T01:36:23.662Z,0.00
2023-07-24T01:37:23.660Z,0.00
2023-07-24T01:38:23.643Z,0.00
2023-07-24T01:39:23.640Z,0.00
2023-07-24T01:40:23.659Z,0.00
2023-07-24T01:41:23.610Z,0.00
2023-07-24T01:42:23.629Z,0.00
2023-07-24T01:43:23.600Z,0.00
2023-07-24T01:44:23.599Z,0.00
2023-07-24T01:45:23.594Z,0.00
2023-07-24T01:46:23.612Z,0.00
2023-07-24T01:47:23.643Z,0.00
2023-07-24T01:48:23.548Z,0.00
2023-07-24T01:49:23.537Z,0.00
2023-07-24T01:50:23.539Z,0.00
2023-07-24T01:51:23.533Z,0.00
2023-07-24T01:52:23.494Z,0.00
2023-07-24T01:53:23.486Z,0.00
2023-07-24T01:54:23.494Z,0.00
2023-07-24T01:55:23.473Z,0.00
2023-07-24T01:56:23.453Z,0.00
2023-07-24T01:57:23.465Z,0.00
2023-07-24T01:58:23.432Z,0.00
2023-07-24T01:59:23.439Z,0.00
2023-07-24T02:00:23.852Z,0.00
2023-07-24T02:01:23.400Z,0.00
2023-07-24T02:02:23.442Z,0.00
2023-07-24T02:03:23.481Z,0.00
2023-07-24T02:04:23.378Z,0.00
2023-07-24T02:05:23.365Z,0.00
2023-07-24T02:06:23.369Z,0.00
2023-07-24T02:07:23.349Z,0.00
2023-07-24T02:08:23.324Z,0.00
2023-07-24T02:09:23.324Z,0.00
2023-07-24T02:10:23.316Z,0.00
2023-07-24T02:11:23.290Z,0.00
2023-07-24T02:12:23.279Z,0.00
2023-07-24T02:13:23.269Z,0.00
2023-07-24T02:14:23.263Z,0.00
2023-07-24T02:15:23.275Z,0.00
2023-07-24T02:16:23.265Z,0.00
2023-07-24T02:17:23.260Z,0.00
2023-07-24T02:18:23.215Z,0.00
2023-07-24T02:19:23.205Z,0.00
2023-07-24T02:20:23.285Z,0.00
2023-07-24T02:21:23.210Z,0.00
2023-07-24T02:22:23.172Z,0.00
2023-07-24T02:23:23.179Z,0.00
2023-07-24T02:24:23.190Z,0.00
2023-07-24T02:25:23.166Z,0.00
2023-07-24T02:26:23.136Z,0.00
2023-07-24T02:27:23.112Z,0.00
2023-07-24T02:28:23.122Z,0.00
2023-07-24T02:29:23.140Z,0.00
2023-07-24T02:30:23.085Z,0.00
2023-07-24T02:31:23.175Z,0.00
2023-07-24T02:32:23.078Z,0.00
2023-07-24T02:33:23.056Z,0.00
2023-07-24T02:34:23.038Z,0.00
2023-07-24T02:35:23.040Z,0.00
2023-07-24T02:36:23.004Z,0.00
2023-07-24T02:37:23.077Z,0.00
2023-07-24T02:38:22.998Z,0.00
2023-07-24T02:39:22.986Z,0.00
2023-07-24T02:40:22.970Z,0.00
2023-07-24T02:41:22.960Z,0.00
2023-07-24T02:42:22.983Z,0.00
2023-07-24T02:43:22.964Z,0.00
2023-07-24T02:44:22.933Z,0.00
2023-07-24T02:45:22.938Z,0.00
2023-07-24T02:46:22.968Z,0.00
2023-07-24T02:47:22.980Z,0.00
2023-07-24T02:48:22.887Z,0.00
2023-07-24T02:49:22.895Z,0.00
2023-07-24T02:50:22.870Z,0.00
2023-07-24T02:51:22.856Z,0.00
2023-07-24T02:52:22.868Z,0.00
2023-07-24T02:53:22.874Z,0.00
2023-07-24T02:54:22.815Z,0.00
2023-07-24T02:55:22.871Z,0.00
2023-07-24T02:56:22.799Z,0.00
2023-07-24T02:57:22.788Z,0.00
2023-07-24T02:58:22.818Z,0.00
2023-07-24T02:59:22.783Z,0.00
2023-07-24T03:00:22.778Z,0.00
2023-07-24T03:01:22.833Z,0.00
2023-07-24T03:02:22.786Z,0.00
2023-07-24T03:03:22.869Z,0.00
2023-07-24T03:04:22.736Z,0.00
2023-07-24T03:05:22.712Z,0.00
2023-07-24T03:06:22.705Z,0.00
2023-07-24T03:07:22.707Z,0.00
2023-07-24T03:08:22.660Z,0.00
2023-07-24T03:09:22.641Z,1.00
2023-07-24T03:10:22.601Z,1.00
2023-07-24T03:11:22.636Z,0.00
2023-07-24T03:12:22.622Z,0.00
2023-07-24T03:13:24.255Z,0.00
2023-07-24T03:14:22.643Z,0.00
2023-07-24T03:15:22.626Z,0.00
2023-07-24T03:16:22.700Z,0.00
2023-07-24T03:17:22.612Z,0.00
2023-07-24T03:18:22.559Z,0.00
2023-07-24T03:19:22.573Z,0.00
2023-07-24T03:20:22.553Z,0.00
2023-07-24T03:21:22.489Z,1.00
2023-07-24T03:22:22.530Z,0.00
2023-07-24T03:23:22.510Z,0.00
2023-07-24T03:24:22.531Z,0.00
2023-07-24T03:25:22.524Z,1.00
2023-07-24T03:26:22.420Z,1.00
2023-07-24T03:27:22.412Z,1.00
2023-07-24T03:28:22.448Z,0.00
2023-07-24T03:29:22.470Z,1.00
2023-07-24T03:30:22.410Z,1.00
2023-07-24T03:31:22.468Z,1.00
2023-07-24T03:32:22.422Z,0.00
2023-07-24T03:33:22.403Z,6.00
2023-07-24T03:34:22.341Z,4.00
2023-07-24T03:35:22.354Z,1.00
2023-07-24T03:36:24.489Z,4.00
2023-07-24T03:37:22.313Z,4.00
2023-07-24T03:38:22.296Z,2.00
2023-07-24T03:39:22.320Z,2.00
2023-07-24T03:40:22.268Z,2.00
2023-07-24T03:41:22.272Z,2.00
2023-07-24T03:42:22.272Z,6.00
2023-07-24T03:43:22.247Z,6.00
2023-07-24T03:44:22.233Z,6.00
2023-07-24T03:45:22.309Z,5.00
2023-07-24T03:46:22.262Z,6.00
2023-07-24T03:47:22.223Z,3.00
2023-07-24T03:48:22.186Z,4.00
2023-07-24T03:49:22.165Z,13.00
2023-07-24T03:50:22.169Z,16.00
2023-07-24T03:51:22.161Z,5.00
2023-07-24T03:52:22.153Z,9.00
2023-07-24T03:53:22.123Z,3.00
2023-07-24T03:54:22.112Z,2.00
2023-07-24T03:55:22.153Z,3.00
2023-07-24T03:56:22.112Z,5.00
2023-07-24T03:57:22.106Z,9.00
2023-07-24T03:58:22.075Z,10.00
2023-07-24T03:59:22.076Z,8.00
2023-07-24T04:00:22.037Z,10.00
2023-07-24T04:01:22.111Z,16.00
2023-07-24T04:02:22.152Z,24.00
2023-07-24T04:03:22.030Z,20.00
2023-07-24T04:04:22.019Z,32.00
2023-07-24T04:05:21.992Z,25.00
2023-07-24T04:06:21.997Z,22.00
2023-07-24T04:07:21.983Z,20.00
2023-07-24T04:08:22.263Z,17.00
2023-07-24T04:09:21.953Z,21.00
2023-07-24T04:10:21.961Z,20.00
2023-07-24T04:11:21.951Z,26.00
2023-07-24T04:12:21.947Z,31.00
2023-07-24T04:13:21.898Z,31.00
2023-07-24T04:14:21.894Z,33.00
2023-07-24T04:15:21.896Z,24.00
2023-07-24T04:16:21.927Z,21.00
2023-07-24T04:17:21.957Z,16.00
2023-07-24T04:18:21.857Z,11.00
2023-07-24T04:19:21.845Z,14.00
2023-07-24T04:20:21.842Z,13.00
2023-07-24T04:21:22.044Z,7.00
2023-07-24T04:22:21.840Z,10.00
2023-07-24T04:23:21.811Z,12.00
2023-07-24T04:24:21.786Z,11.00
2023-07-24T04:25:21.810Z,21.00
2023-07-24T04:26:22.380Z,25.00
2023-07-24T04:27:21.792Z,26.00
2023-07-24T04:28:21.755Z,28.00
2023-07-24T04:29:21.722Z,30.00
2023-07-24T04:30:21.713Z,36.00
2023-07-24T04:31:21.736Z,35.00
2023-07-24T04:32:21.708Z,27.00
2023-07-24T04:33:21.698Z,23.00
2023-07-24T04:34:21.675Z,12.00
2023-07-24T04:35:21.688Z,19.00
2023-07-24T04:36:21.675Z,57.00
2023-07-24T04:37:21.643Z,75.00
2023-07-24T04:38:21.634Z,97.00
2023-07-24T04:39:21.621Z,90.00
2023-07-24T04:40:21.623Z,40.00
2023-07-24T04:41:21.623Z,72.00
2023-07-24T04:42:21.583Z,101.00
2023-07-24T04:43:21.581Z,108.00
2023-07-24T04:44:21.569Z,108.00
2023-07-24T04:45:23.915Z,124.00
2023-07-24T04:46:21.598Z,128.00
2023-07-24T04:47:21.532Z,130.00
2023-07-24T04:48:21.534Z,139.00
2023-07-24T04:49:21.549Z,143.00
2023-07-24T04:50:21.521Z,122.00
2023-07-24T04:51:21.499Z,86.00
2023-07-24T04:52:21.572Z,141.00
2023-07-24T04:53:21.508Z,167.00
2023-07-24T04:54:21.482Z,172.00
2023-07-24T04:55:21.471Z,145.00
2023-07-24T04:56:21.440Z,113.00
2023-07-24T04:57:21.421Z,63.00
2023-07-24T04:58:21.436Z,23.00
2023-07-24T04:59:21.418Z,45.00
2023-07-24T05:00:21.399Z,57.00
2023-07-24T05:01:21.456Z,55.00
2023-07-24T05:02:21.423Z,61.00
2023-07-24T05:03:21.373Z,57.00
2023-07-24T05:04:21.414Z,65.00
2023-07-24T05:05:21.340Z,88.00
2023-07-24T05:06:21.326Z,109.00
2023-07-24T05:07:21.342Z,140.00
2023-07-24T05:08:21.359Z,169.00
2023-07-24T05:09:21.316Z,206.00
2023-07-24T05:10:21.360Z,255.00
2023-07-24T05:11:21.279Z,217.00
2023-07-24T05:12:21.269Z,192.00
2023-07-24T05:13:21.253Z,149.00
2023-07-24T05:14:21.301Z,174.00
2023-07-24T05:15:21.253Z,191.00
2023-07-24T05:16:21.235Z,158.00
2023-07-24T05:17:21.247Z,163.00
2023-07-24T05:18:21.193Z,122.00
2023-07-24T05:19:21.203Z,146.00
2023-07-24T05:20:21.329Z,193.00
2023-07-24T05:21:21.181Z,195.00
2023-07-24T05:22:21.191Z,257.00
2023-07-24T05:23:21.154Z,238.00
2023-07-24T05:24:21.137Z,160.00
2023-07-24T05:25:21.122Z,294.00
2023-07-24T05:26:21.113Z,423.00
2023-07-24T05:27:21.105Z,335.00
2023-07-24T05:28:21.121Z,476.00
2023-07-24T05:29:21.200Z,486.00
2023-07-24T05:30:21.083Z,550.00
2023-07-24T05:31:21.097Z,555.00
2023-07-24T05:32:21.049Z,415.00
2023-07-24T05:33:21.035Z,446.00
2023-07-24T05:34:21.134Z,689.00
2023-07-24T05:35:21.044Z,640.00
2023-07-24T05:36:21.007Z,675.00
2023-07-24T05:37:21.029Z,711.00
2023-07-24T05:38:20.988Z,765.00
2023-07-24T05:39:21.016Z,865.00
2023-07-24T05:40:20.959Z,726.00
2023-07-24T05:41:20.969Z,973.00
2023-07-24T05:42:20.932Z,849.00
2023-07-24T05:43:20.933Z,840.00
2023-07-24T05:44:20.926Z,1018.00
2023-07-24T05:45:20.915Z,986.00
2023-07-24T05:46:20.931Z,1090.00
2023-07-24T05:47:20.884Z,783.00
2023-07-24T05:48:20.889Z,721.00
2023-07-24T05:49:20.864Z,484.00
2023-07-24T05:50:20.981Z,280.00
2023-07-24T05:51:20.832Z,405.00
2023-07-24T05:52:20.835Z,280.00
2023-07-24T05:53:20.818Z,512.00
2023-07-24T05:54:20.815Z,725.00
2023-07-24T05:55:20.810Z,755.00
2023-07-24T05:56:20.788Z,770.00
2023-07-24T05:57:20.774Z,664.00
2023-07-24T05:58:20.761Z,568.00
2023-07-24T05:59:20.742Z,321.00
2023-07-24T06:00:21.016Z,313.00
2023-07-24T06:01:20.769Z,434.00
2023-07-24T06:02:20.727Z,237.00
2023-07-24T06:03:20.807Z,348.00
2023-07-24T06:04:20.938Z,414.00
2023-07-24T06:05:20.712Z,655.00
2023-07-24T06:06:20.687Z,547.00
2023-07-24T06:07:20.661Z,585.00
2023-07-24T06:08:20.667Z,367.00
2023-07-24T06:09:22.163Z,287.00
2023-07-24T06:10:20.662Z,353.00
2023-07-24T06:11:20.631Z,501.00
2023-07-24T06:12:20.619Z,696.00
2023-07-24T06:13:20.656Z,723.00
2023-07-24T06:14:20.821Z,614.00
2023-07-24T06:15:20.590Z,864.00
2023-07-24T06:16:20.628Z,993.00
2023-07-24T06:17:20.570Z,930.00
2023-07-24T06:18:20.591Z,818.00
2023-07-24T06:19:20.529Z,683.00
2023-07-24T06:20:20.531Z,776.00
2023-07-24T06:21:20.571Z,666.00
2023-07-24T06:22:20.536Z,817.00
2023-07-24T06:23:20.490Z,666.00
2023-07-24T06:24:20.501Z,626.00
2023-07-24T06:25:20.470Z,645.00
2023-07-24T06:26:20.504Z,829.00
2023-07-24T06:27:20.454Z,858.00
2023-07-24T06:28:20.443Z,839.00
2023-07-24T06:29:20.432Z,841.00
2023-07-24T06:30:20.435Z,759.00
2023-07-24T06:31:20.834Z,839.00
2023-07-24T06:32:20.404Z,983.00
2023-07-24T06:33:20.381Z,863.00
2023-07-24T06:34:20.391Z,866.00
2023-07-24T06:35:20.398Z,901.00
2023-07-24T06:36:20.368Z,971.00
2023-07-24T06:37:23.050Z,1104.00
2023-07-24T06:38:20.326Z,1096.00
2023-07-24T06:39:20.362Z,1071.00
2023-07-24T06:40:20.319Z,1024.00
2023-07-24T06:41:20.295Z,1184.00
2023-07-24T06:42:20.337Z,1303.00
2023-07-24T06:43:20.270Z,1166.00
2023-07-24T06:44:20.268Z,1198.00
2023-07-24T06:45:20.262Z,1308.00
2023-07-24T06:46:20.367Z,1112.00
2023-07-24T06:47:20.249Z,1293.00
2023-07-24T06:48:20.250Z,1586.00
2023-07-24T06:49:20.208Z,1476.00
2023-07-24T06:50:20.215Z,1323.00
2023-07-24T06:51:20.191Z,987.00
2023-07-24T06:52:20.196Z,1092.00
2023-07-24T06:53:20.165Z,985.00
2023-07-24T06:54:20.179Z,1271.00
2023-07-24T06:55:20.183Z,1310.00
2023-07-24T06:56:20.134Z,1341.00
2023-07-24T06:57:20.166Z,1046.00
2023-07-24T06:58:20.171Z,1692.00
2023-07-24T06:59:20.113Z,1878.00
2023-07-24T07:00:20.128Z,1770.00
2023-07-24T07:01:20.117Z,1242.00
2023-07-24T07:02:20.070Z,1300.00
2023-07-24T07:03:20.116Z,1545.00
2023-07-24T07:04:20.116Z,1302.00
2023-07-24T07:05:20.047Z,769.00
2023-07-24T07:07:20.024Z,1111.00
2023-07-24T07:08:20.038Z,1422.00
2023-07-24T07:09:20.198Z,1132.00
2023-07-24T07:10:20.074Z,946.00
2023-07-24T07:11:20.050Z,1636.00
2023-07-24T07:12:22.106Z,1666.00
2023-07-24T07:13:19.976Z,1585.00
2023-07-24T07:14:20.006Z,1164.00
2023-07-24T07:15:19.981Z,876.00
2023-07-24T07:16:20.066Z,1858.00
2023-07-24T07:17:20.003Z,2148.00
2023-07-24T07:18:19.962Z,2202.00
2023-07-24T07:19:19.921Z,1922.00
2023-07-24T07:20:19.926Z,1499.00
2023-07-24T07:21:19.890Z,1376.00
2023-07-24T07:22:19.874Z,1298.00
2023-07-24T07:23:19.879Z,997.00
2023-07-24T07:24:19.892Z,606.00
2023-07-24T07:25:19.933Z,711.00
2023-07-24T07:26:19.823Z,925.00
2023-07-24T07:27:19.805Z,441.00
2023-07-24T07:28:19.797Z,260.00
2023-07-24T07:29:19.792Z,170.00
2023-07-24T07:30:19.772Z,405.00
2023-07-24T07:31:19.818Z,235.00
2023-07-24T07:32:19.765Z,402.00
2023-07-24T07:33:19.788Z,575.00
2023-07-24T07:34:19.740Z,1135.00
2023-07-24T07:35:19.751Z,1282.00
2023-07-24T07:36:19.721Z,1488.00
2023-07-24T07:37:19.712Z,1158.00
2023-07-24T07:38:19.689Z,1074.00
2023-07-24T07:39:19.682Z,1047.00
2023-07-24T07:40:19.681Z,1197.00
2023-07-24T07:41:19.685Z,1116.00
2023-07-24T07:42:19.648Z,1279.00
2023-07-24T07:43:19.651Z,1369.00
2023-07-24T07:44:19.637Z,1382.00
2023-07-24T07:45:19.671Z,1423.00
2023-07-24T07:46:19.647Z,1386.00
2023-07-24T07:47:20.437Z,1386.00
2023-07-24T07:48:19.594Z,1476.00
2023-07-24T07:49:19.579Z,1455.00
2023-07-24T07:50:19.565Z,1505.00
2023-07-24T07:51:19.555Z,1528.00
2023-07-24T07:52:19.553Z,1433.00
2023-07-24T07:53:19.552Z,1411.00
2023-07-24T07:54:19.505Z,1142.00
2023-07-24T07:55:19.516Z,898.00
2023-07-24T07:56:19.531Z,1066.00
2023-07-24T07:57:19.482Z,1268.00
2023-07-24T07:58:19.475Z,1338.00
2023-07-24T07:59:19.469Z,1675.00
2023-07-24T08:00:19.464Z,1697.00
2023-07-24T08:01:19.538Z,1698.00
2023-07-24T08:02:19.456Z,1739.00
2023-07-24T08:03:19.430Z,1667.00
2023-07-24T08:04:19.419Z,1346.00
2023-07-24T08:05:21.554Z,1325.00
2023-07-24T08:06:19.411Z,1781.00
2023-07-24T08:07:19.384Z,1829.00
2023-07-24T08:08:19.372Z,1772.00
2023-07-24T08:09:19.372Z,1879.00
2023-07-24T08:10:19.360Z,1965.00
2023-07-24T08:11:19.334Z,2164.00
2023-07-24T08:12:19.319Z,2351.00
2023-07-24T08:13:19.317Z,2309.00
2023-07-24T08:14:19.323Z,2542.00
2023-07-24T08:15:19.305Z,2850.00
2023-07-24T08:16:19.528Z,2409.00
2023-07-24T08:17:19.359Z,2291.00
2023-07-24T08:18:19.298Z,2552.00
2023-07-24T08:19:19.246Z,1519.00
2023-07-24T08:20:19.282Z,3664.00
2023-07-24T08:21:19.235Z,3603.00
2023-07-24T08:22:19.207Z,3315.00
2023-07-24T08:23:19.213Z,3260.00
2023-07-24T08:24:19.237Z,5523.00
2023-07-24T08:25:19.221Z,4362.00
2023-07-24T08:26:19.176Z,2859.00
2023-07-24T08:27:19.165Z,2564.00
2023-07-24T08:28:19.171Z,2900.00
2023-07-24T08:29:19.146Z,1722.00
2023-07-24T08:30:19.154Z,1174.00
2023-07-24T08:31:19.153Z,1149.00
2023-07-24T08:32:19.160Z,1125.00
2023-07-24T08:33:19.101Z,1147.00
2023-07-24T08:34:19.137Z,1853.00
2023-07-24T08:35:19.086Z,1682.00
2023-07-24T08:36:19.084Z,1780.00
2023-07-24T08:37:19.084Z,2343.00
2023-07-24T08:38:19.089Z,1636.00
2023-07-24T08:39:19.036Z,1961.00
2023-07-24T08:40:19.084Z,2390.00
2023-07-24T08:41:19.040Z,2799.00
2023-07-24T08:42:20.026Z,2605.00
2023-07-24T08:43:19.011Z,2394.00
2023-07-24T08:44:18.999Z,1780.00
2023-07-24T08:45:19.006Z,2474.00
2023-07-24T08:46:19.013Z,1926.00
2023-07-24T08:47:18.969Z,1789.00
2023-07-24T08:48:18.936Z,3865.00
2023-07-24T08:49:18.920Z,3022.00
2023-07-24T08:50:18.934Z,2214.00
2023-07-24T08:51:18.932Z,4554.00
2023-07-24T08:52:34.501Z,2744.00
2023-07-24T08:53:18.932Z,3146.00
2023-07-24T08:54:18.864Z,2257.00
2023-07-24T08:55:18.874Z,3564.00
2023-07-24T08:56:18.941Z,3668.00
2023-07-24T08:57:18.859Z,2513.00
2023-07-24T08:58:18.844Z,2062.00
2023-07-24T08:59:18.809Z,2595.00
2023-07-24T09:00:18.826Z,3667.00
2023-07-24T09:01:18.846Z,2348.00
2023-07-24T09:02:18.797Z,2859.00
2023-07-24T09:03:18.823Z,4121.00
2023-07-24T09:04:18.762Z,4263.00
2023-07-24T09:05:18.772Z,4085.00
2023-07-24T09:06:18.728Z,2443.00
2023-07-24T09:07:18.744Z,2091.00
2023-07-24T09:08:18.718Z,2091.00
2023-07-24T09:09:18.701Z,1869.00
2023-07-24T09:10:18.729Z,2099.00
2023-07-24T09:11:18.696Z,2156.00
2023-07-24T09:12:18.726Z,2441.00
2023-07-24T09:13:18.753Z,2843.00
2023-07-24T09:14:20.630Z,2585.00
2023-07-24T09:15:18.635Z,2493.00
2023-07-24T09:16:18.691Z,2511.00
2023-07-24T09:17:20.723Z,2617.00
2023-07-24T09:18:18.659Z,2233.00
2023-07-24T09:19:26.775Z,1796.00
2023-07-24T09:20:31.472Z,1686.00
2023-07-24T09:21:20.149Z,1882.00
2023-07-24T09:22:19.494Z,2186.00
2023-07-24T09:23:21.845Z,2021.00
2023-07-24T09:24:18.617Z,1993.00
2023-07-24T09:25:18.564Z,1953.00
2023-07-24T09:26:18.528Z,3075.00
2023-07-24T09:27:18.597Z,4500.00
2023-07-24T09:28:21.464Z,4588.00
2023-07-24T09:29:18.495Z,4945.00
2023-07-24T09:30:18.587Z,3247.00
2023-07-24T09:31:19.040Z,3231.00
2023-07-24T09:32:18.480Z,3349.00
2023-07-24T09:33:19.015Z,4870.00
2023-07-24T09:34:19.001Z,3796.00
2023-07-24T09:35:18.509Z,3607.00
2023-07-24T09:36:18.417Z,4690.00
2023-07-24T09:37:18.408Z,3659.00
2023-07-24T09:38:18.399Z,4473.00
2023-07-24T09:39:18.377Z,4844.00
2023-07-24T09:40:18.456Z,5300.00
2023-07-24T09:42:18.354Z,5281.00
2023-07-24T09:43:37.225Z,5116.00
2023-07-24T09:44:19.119Z,4674.00
2023-07-24T09:45:18.353Z,4277.00
2023-07-24T09:46:19.006Z,3724.00
2023-07-24T09:48:40.696Z,5417.00
2023-07-24T09:49:18.334Z,3930.00
2023-07-24T09:50:18.315Z,4028.00
2023-07-24T09:51:18.262Z,3262.00
2023-07-24T09:52:18.283Z,3081.00
2023-07-24T09:53:18.239Z,3197.00
2023-07-24T09:54:18.255Z,2588.00
2023-07-24T09:55:18.241Z,2738.00
2023-07-24T09:56:18.271Z,3539.00
2023-07-24T09:57:21.710Z,2363.00
2023-07-24T09:58:46.036Z,5548.00
2023-07-24T09:59:18.157Z,4377.00
2023-07-24T10:00:18.196Z,4551.00
2023-07-24T10:01:18.180Z,4412.00
2023-07-24T10:02:20.135Z,4488.00
2023-07-24T10:03:18.144Z,3490.00
2023-07-24T10:04:18.145Z,3427.00
2023-07-24T10:05:18.097Z,3474.00
2023-07-24T10:06:19.013Z,5795.00
2023-07-24T10:07:18.969Z,4575.00
2023-07-24T10:08:18.060Z,2804.00
2023-07-24T10:09:18.081Z,7615.00
2023-07-24T10:10:18.050Z,5954.00
2023-07-24T10:11:18.040Z,4490.00
2023-07-24T10:12:18.982Z,2814.00
2023-07-24T10:13:18.048Z,3019.00
2023-07-24T10:14:18.044Z,3606.00
2023-07-24T10:15:21.030Z,2805.00
2023-07-24T10:16:17.993Z,3493.00
2023-07-24T10:17:19.636Z,3729.00
2023-07-24T10:18:20.794Z,3267.00
2023-07-24T10:19:19.580Z,2888.00
2023-07-24T10:20:18.025Z,3137.00
2023-07-24T10:21:17.920Z,2218.00
2023-07-24T10:22:17.923Z,2730.00
2023-07-24T10:23:17.913Z,3696.00
2023-07-24T10:24:35.438Z,4425.00
2023-07-24T10:25:17.950Z,3958.00
2023-07-24T10:26:17.897Z,3985.00
2023-07-24T10:27:17.868Z,4200.00
2023-07-24T10:28:17.884Z,4092.00
2023-07-24T10:29:17.910Z,3383.00
2023-07-24T10:30:33.607Z,2665.00
2023-07-24T10:31:17.878Z,2214.00
2023-07-24T10:32:17.904Z,2740.00
2023-07-24T10:33:17.923Z,2947.00
2023-07-24T10:34:17.827Z,2498.00
2023-07-24T10:35:17.804Z,2697.00
2023-07-24T10:36:17.793Z,3618.00
2023-07-24T10:37:17.767Z,4069.00
2023-07-24T10:38:17.757Z,3615.00
2023-07-24T10:39:17.801Z,3243.00
2023-07-24T10:40:17.766Z,3077.00
2023-07-24T10:41:17.727Z,3173.00
2023-07-24T10:42:17.724Z,2798.00
2023-07-24T10:43:17.709Z,2478.00
2023-07-24T10:44:17.718Z,2244.00
2023-07-24T10:45:17.675Z,2440.00
2023-07-24T10:46:17.731Z,2438.00
2023-07-24T10:47:17.651Z,1727.00
2023-07-24T10:48:17.662Z,6928.00
2023-07-24T10:49:17.699Z,4103.00
2023-07-24T10:50:17.625Z,3474.00
2023-07-24T10:51:17.638Z,1789.00
2023-07-24T10:52:17.617Z,1638.00
2023-07-24T10:53:17.650Z,2440.00
2023-07-24T10:54:17.584Z,2794.00
2023-07-24T10:55:17.570Z,3919.00
2023-07-24T10:56:17.560Z,8280.00
2023-07-24T10:57:17.603Z,4227.00
2023-07-24T10:58:17.545Z,3760.00
2023-07-24T10:59:17.585Z,1615.00
2023-07-24T11:00:19.676Z,4888.00
2023-07-24T11:01:17.543Z,4658.00
2023-07-24T11:02:17.496Z,5490.00
2023-07-24T11:03:17.481Z,7951.00
2023-07-24T11:04:17.521Z,3939.00
2023-07-24T11:05:18.224Z,6777.00
2023-07-24T11:06:17.498Z,6015.00
2023-07-24T11:07:17.455Z,4422.00
2023-07-24T11:08:17.505Z,5415.00
2023-07-24T11:09:17.489Z,4857.00
2023-07-24T11:10:20.955Z,4762.00
2023-07-24T11:11:17.393Z,4816.00
2023-07-24T11:12:17.474Z,4777.00
2023-07-24T11:13:17.427Z,4739.00
2023-07-24T11:14:17.445Z,4826.00
2023-07-24T11:15:17.445Z,5787.00
2023-07-24T11:16:17.405Z,5776.00
2023-07-24T11:17:17.350Z,6204.00
2023-07-24T11:18:17.362Z,6726.00
2023-07-24T11:19:17.311Z,4636.00
2023-07-24T11:20:17.633Z,9940.00
2023-07-24T11:21:17.326Z,5803.00
2023-07-24T11:22:17.357Z,5199.00
2023-07-24T11:23:17.402Z,3721.00
2023-07-24T11:24:17.332Z,3649.00
2023-07-24T11:25:17.264Z,3317.00
2023-07-24T11:26:17.264Z,3159.00
2023-07-24T11:27:17.327Z,2774.00
2023-07-24T11:28:17.250Z,3363.00
2023-07-24T11:29:17.242Z,3073.00
2023-07-24T11:30:17.275Z,2622.00
2023-07-24T11:31:17.261Z,2520.00
2023-07-24T11:32:17.191Z,2128.00
2023-07-24T11:33:19.228Z,1867.00
2023-07-24T11:34:17.156Z,1563.00
2023-07-24T11:35:17.147Z,3055.00
2023-07-24T11:36:17.154Z,3677.00
2023-07-24T11:37:17.672Z,2815.00
2023-07-24T11:38:17.125Z,2250.00
2023-07-24T11:39:19.797Z,2088.00
2023-07-24T11:40:17.082Z,2206.00
2023-07-24T11:41:17.082Z,3169.00
2023-07-24T11:42:17.079Z,4025.00
2023-07-24T11:43:17.039Z,3713.00
2023-07-24T11:44:17.049Z,2992.00
2023-07-24T11:45:17.045Z,1872.00
2023-07-24T11:46:17.048Z,2534.00
2023-07-24T11:47:17.065Z,2168.00
2023-07-24T11:48:17.002Z,2323.00
2023-07-24T11:49:16.999Z,2465.00
2023-07-24T11:50:17.008Z,2411.00
2023-07-24T11:51:16.978Z,1852.00
2023-07-24T11:52:17.002Z,1834.00
2023-07-24T11:53:16.971Z,1693.00
2023-07-24T11:54:16.991Z,2190.00
2023-07-24T11:55:16.976Z,1669.00
2023-07-24T11:56:17.032Z,1432.00
2023-07-24T11:57:16.953Z,1073.00
2023-07-24T11:58:16.905Z,1105.00
2023-07-24T11:59:16.930Z,1055.00
2023-07-24T12:00:16.904Z,1052.00
2023-07-24T12:01:16.865Z,1215.00
2023-07-24T12:02:18.132Z,1127.00
2023-07-24T12:03:17.072Z,1195.00
2023-07-24T12:04:16.871Z,969.00
2023-07-24T12:05:16.828Z,705.00
2023-07-24T12:06:16.847Z,562.00
2023-07-24T12:07:16.868Z,451.00
2023-07-24T12:08:16.790Z,436.00
2023-07-24T12:09:16.780Z,400.00
2023-07-24T12:10:16.776Z,566.00
2023-07-24T12:11:16.738Z,1061.00
2023-07-24T12:12:16.752Z,1408.00
2023-07-24T12:13:18.689Z,1564.00
2023-07-24T12:14:16.764Z,1684.00
2023-07-24T12:15:16.706Z,1756.00
2023-07-24T12:16:16.745Z,1774.00
2023-07-24T12:17:16.717Z,1813.00
2023-07-24T12:18:16.746Z,1831.00
2023-07-24T12:19:16.665Z,1787.00
2023-07-24T12:20:16.656Z,1529.00
2023-07-24T12:21:16.646Z,1345.00
2023-07-24T12:22:16.639Z,1340.00
2023-07-24T12:23:16.689Z,1526.00
2023-07-24T12:24:16.784Z,1734.00
2023-07-24T12:25:16.671Z,1614.00
2023-07-24T12:26:16.647Z,1763.00
2023-07-24T12:27:16.583Z,2240.00
2023-07-24T12:28:16.659Z,2336.00
2023-07-24T12:29:16.563Z,2480.00
2023-07-24T12:30:16.637Z,2603.00
2023-07-24T12:31:16.541Z,2599.00
2023-07-24T12:32:16.523Z,2732.00
2023-07-24T12:33:16.529Z,2974.00
2023-07-24T12:34:16.947Z,3845.00
2023-07-24T12:35:17.499Z,4571.00
2023-07-24T12:36:16.541Z,5236.00
2023-07-24T12:37:16.493Z,4883.00